Time;durP1;ratioP1;P1;durP2;ratioP2;P2;SDS_P1;SDS_P2;PMS_P1;PMS_P2;Temp;Humidity;BMP_temperature;BMP_pressure;BME280_temperature;BME280_humidity;BME280_pressure;Samples;Min_cycle;Max_cycle;Signal;HPM_P1;HPM_P2
2022/11/02 00:02:22;;;;;;;0.60;0.60;;;9.00;99.90;;;;;;5098473;28;20408;-76
2022/11/02 00:04:48;;;;;;;4.22;0.60;;;9.00;99.90;;;;;;5096273;28;20031;-76
2022/11/02 00:07:14;;;;;;;1.23;0.68;;;9.00;99.90;;;;;;5091397;28;20065;-77
2022/11/02 00:09:40;;;;;;;1.02;1.00;;;9.00;99.90;;;;;;5089615;28;20511;-76
2022/11/02 00:12:09;;;;;;;0.65;0.60;;;9.10;99.90;;;;;;5094395;28;20024;-77
2022/11/02 00:14:35;;;;;;;1.17;0.90;;;9.20;99.90;;;;;;5088778;28;20032;-75
2022/11/02 00:17:01;;;;;;;0.63;0.50;;;9.20;99.90;;;;;;5092397;28;20027;-77
2022/11/02 00:19:27;;;;;;;0.65;0.65;;;9.20;99.90;;;;;;5092567;28;20020;-75
2022/11/02 00:21:54;;;;;;;1.13;1.00;;;9.10;99.90;;;;;;5089952;28;20480;-75
2022/11/02 00:24:20;;;;;;;2.60;0.95;;;9.10;99.90;;;;;;5092307;28;20032;-78
2022/11/02 00:26:46;;;;;;;1.33;0.85;;;9.00;99.90;;;;;;5094601;28;20028;-75
2022/11/02 00:29:11;;;;;;;1.77;1.33;;;9.10;99.90;;;;;;5090139;28;20055;-75
2022/11/02 00:31:37;;;;;;;1.42;1.08;;;9.20;99.90;;;;;;5094645;28;20697;-75
2022/11/02 00:34:03;;;;;;;1.83;0.90;;;9.20;99.90;;;;;;5098901;28;20035;-75
2022/11/02 00:36:30;;;;;;;2.95;1.65;;;9.30;99.90;;;;;;5092845;28;20073;-76
2022/11/02 00:38:56;;;;;;;1.25;0.73;;;9.30;99.90;;;;;;5090823;28;20070;-75
2022/11/02 00:41:21;;;;;;;2.38;0.70;;;9.40;99.90;;;;;;5091158;28;20055;-75
2022/11/02 00:43:47;;;;;;;0.80;0.80;;;9.50;99.90;;;;;;5093674;28;20089;-75
2022/11/02 00:46:13;;;;;;;0.63;0.63;;;9.50;99.90;;;;;;5090427;28;20020;-75
2022/11/02 00:48:39;;;;;;;0.63;0.55;;;9.50;99.90;;;;;;5097302;28;20035;-75
2022/11/02 00:51:04;;;;;;;1.10;0.68;;;9.40;99.90;;;;;;5088590;28;20036;-75
2022/11/02 00:53:30;;;;;;;2.15;1.13;;;9.40;99.90;;;;;;5070220;28;20036;-75
2022/11/02 00:56:02;;;;;;;1.60;0.98;;;9.30;99.90;;;;;;5092474;28;20460;-76
2022/11/02 00:58:27;;;;;;;1.50;1.30;;;9.40;99.90;;;;;;5095640;28;20020;-75
2022/11/02 01:00:55;;;;;;;0.60;0.60;;;9.40;99.90;;;;;;5096888;28;20069;-75
2022/11/02 01:03:21;;;;;;;0.68;0.52;;;9.40;99.90;;;;;;5106225;28;20027;-75
2022/11/02 01:05:47;;;;;;;0.55;0.55;;;9.40;99.90;;;;;;5105178;28;20381;-77
2022/11/02 01:08:12;;;;;;;3.67;1.10;;;9.30;99.90;;;;;;5106565;28;20027;-76
2022/11/02 01:10:38;;;;;;;5.13;1.52;;;9.40;99.90;;;;;;5106570;28;20028;-75
2022/11/02 01:13:07;;;;;;;7.25;2.38;;;9.40;99.90;;;;;;5106348;28;20468;-76
2022/11/02 01:15:35;;;;;;;2.55;1.20;;;9.40;99.90;;;;;;5106843;28;20020;-75
2022/11/02 01:18:01;;;;;;;1.20;1.10;;;9.40;99.90;;;;;;5106488;28;20035;-76
2022/11/02 01:20:27;;;;;;;1.40;1.13;;;9.40;99.90;;;;;;5106312;28;20027;-75
2022/11/02 01:22:53;;;;;;;4.15;1.33;;;9.40;99.90;;;;;;5088392;28;20603;-74
2022/11/02 01:25:18;;;;;;;3.70;1.02;;;9.40;99.90;;;;;;5106291;28;20488;-75
2022/11/02 01:27:44;;;;;;;0.95;0.85;;;9.40;99.90;;;;;;5106460;28;20539;-77
2022/11/02 01:30:10;;;;;;;1.27;1.17;;;9.40;99.90;;;;;;5106466;28;20023;-78
2022/11/02 01:32:36;;;;;;;1.25;1.02;;;9.40;99.90;;;;;;5105883;28;20587;-75
2022/11/02 01:35:02;;;;;;;0.90;0.80;;;9.30;99.90;;;;;;5106285;28;20103;-77
2022/11/02 01:37:28;;;;;;;1.13;0.90;;;9.30;99.90;;;;;;5106804;28;20483;-77
2022/11/02 01:39:53;;;;;;;3.40;0.63;;;9.40;99.90;;;;;;5106553;28;20434;-78
2022/11/02 01:42:24;;;;;;;2.65;0.77;;;9.40;99.90;;;;;;5105946;28;20797;-77
2022/11/02 01:44:50;;;;;;;1.60;0.52;;;9.50;99.90;;;;;;5106255;28;20869;-77
2022/11/02 01:47:39;;;;;;;0.75;0.75;;;9.50;99.90;;;;;;5091824;28;20017;-77
2022/11/02 01:50:12;;;;;;;0.98;0.80;;;9.50;99.90;;;;;;5085773;28;20024;-78
2022/11/02 01:52:39;;;;;;;1.23;0.88;;;9.50;99.90;;;;;;5085494;28;20028;-76
2022/11/02 01:55:19;;;;;;;1.70;1.60;;;9.50;99.90;;;;;;5085818;28;20024;-78
2022/11/02 01:57:51;;;;;;;1.33;0.73;;;9.50;99.90;;;;;;5088937;28;20028;-78
2022/11/02 02:00:17;;;;;;;2.92;0.93;;;9.60;99.90;;;;;;5090090;28;20016;-75
2022/11/02 02:02:50;;;;;;;2.10;0.90;;;9.60;99.90;;;;;;5089044;28;20024;-76
2022/11/02 02:05:16;;;;;;;0.85;0.75;;;9.60;99.90;;;;;;5089050;28;20024;-76
2022/11/02 02:07:43;;;;;;;0.50;0.50;;;9.60;99.90;;;;;;5089820;28;20111;-77
2022/11/02 02:10:12;;;;;;;0.93;0.93;;;9.60;99.90;;;;;;5089657;28;20032;-78
2022/11/02 02:12:39;;;;;;;1.95;0.98;;;9.60;99.90;;;;;;5088980;28;20039;-78
2022/11/02 02:15:06;;;;;;;2.20;1.33;;;9.50;99.90;;;;;;5089433;28;20028;-77
2022/11/02 02:18:12;;;;;;;2.28;1.25;;;9.50;99.90;;;;;;5088934;28;20088;-78
2022/11/02 02:20:44;;;;;;;3.25;1.48;;;9.40;99.90;;;;;;4986516;28;20046;-77
2022/11/02 02:23:31;;;;;;;1.60;1.00;;;9.30;99.90;;;;;;5075623;28;20040;-78
2022/11/02 02:26:39;;;;;;;2.15;1.02;;;9.30;99.90;;;;;;5088726;28;20064;-77
2022/11/02 02:29:10;;;;;;;0.98;0.70;;;9.10;99.90;;;;;;5057637;28;20487;-77
2022/11/02 02:31:45;;;;;;;2.33;1.08;;;9.10;99.90;;;;;;5088703;28;20086;-78
2022/11/02 02:34:22;;;;;;;2.10;1.00;;;9.00;99.90;;;;;;5089092;28;20028;-77
2022/11/02 02:36:57;;;;;;;3.50;0.77;;;9.00;99.90;;;;;;5088712;28;20472;-77
2022/11/02 02:39:45;;;;;;;0.93;0.93;;;8.80;99.90;;;;;;5088965;28;20505;-77
2022/11/02 02:42:35;;;;;;;5.68;0.90;;;8.70;99.90;;;;;;5089048;28;20020;-78
2022/11/02 02:45:15;;;;;;;0.43;0.43;;;8.60;99.90;;;;;;5089300;28;20027;-78
2022/11/02 02:47:53;;;;;;;1.38;0.98;;;8.50;99.90;;;;;;5106959;28;20027;-76
2022/11/02 02:50:25;;;;;;;0.95;0.90;;;8.40;99.90;;;;;;5109139;28;20774;-78
2022/11/02 02:52:52;;;;;;;1.20;1.00;;;8.30;99.90;;;;;;5089996;28;20077;-77
2022/11/02 02:55:25;;;;;;;1.02;0.77;;;8.20;99.90;;;;;;5108212;28;20019;-78
2022/11/02 02:57:53;;;;;;;3.60;1.02;;;8.10;99.90;;;;;;5090479;28;20039;-78
2022/11/02 03:00:18;;;;;;;5.57;1.02;;;8.10;99.90;;;;;;5090089;28;20521;-78
2022/11/02 03:03:01;;;;;;;1.45;1.35;;;8.00;99.90;;;;;;5109076;28;20039;-78
2022/11/02 03:05:36;;;;;;;0.70;0.70;;;7.90;99.90;;;;;;5108467;28;20065;-79
2022/11/02 03:08:14;;;;;;;1.83;0.88;;;7.80;99.90;;;;;;5090087;28;20114;-78
2022/11/02 03:11:01;;;;;;;3.75;0.88;;;7.80;99.90;;;;;;5108783;28;20051;-77
2022/11/02 03:13:48;;;;;;;1.88;1.40;;;7.90;99.90;;;;;;5108275;28;20040;-78
2022/11/02 03:16:32;;;;;;;2.25;1.00;;;7.80;99.90;;;;;;5108412;28;20023;-78
2022/11/02 03:19:20;;;;;;;0.95;0.88;;;7.90;99.90;;;;;;5090376;28;20132;-77
2022/11/02 03:21:51;;;;;;;3.03;0.95;;;7.80;99.90;;;;;;5108535;28;20023;-77
2022/11/02 03:24:32;;;;;;;1.10;1.00;;;6.00;99.90;;;;;;5108491;28;20020;-77
2022/11/02 03:27:32;;;;;;;3.38;1.02;;;7.80;99.90;;;;;;5108191;28;20034;-77
2022/11/02 03:30:14;;;;;;;0.93;0.70;;;7.80;99.90;;;;;;5107805;28;20038;-76
2022/11/02 03:33:19;;;;;;;2.28;0.70;;;7.80;99.90;;;;;;5089212;28;20488;-78
2022/11/02 03:35:55;;;;;;;2.15;1.08;;;7.70;99.90;;;;;;5108080;28;20027;-77
2022/11/02 03:38:31;;;;;;;1.35;1.25;;;7.60;99.90;;;;;;5108135;28;20043;-77
2022/11/02 03:41:00;;;;;;;0.85;0.73;;;7.50;99.90;;;;;;5107787;28;20488;-78
2022/11/02 03:43:26;;;;;;;1.80;0.77;;;7.50;99.90;;;;;;5107732;28;20555;-76
2022/11/02 03:45:56;;;;;;;2.60;0.73;;;7.40;99.90;;;;;;5105016;28;20031;-78
2022/11/02 03:48:28;;;;;;;6.90;1.42;;;7.40;99.90;;;;;;5087176;28;20024;-76
2022/11/02 03:50:56;;;;;;;1.48;0.75;;;7.40;99.90;;;;;;5087082;28;20538;-77
2022/11/02 03:53:47;;;;;;;1.15;1.05;;;7.30;99.90;;;;;;5087282;28;20056;-76
2022/11/02 03:56:42;;;;;;;0.75;0.75;;;7.20;99.90;;;;;;5087477;28;20119;-76
2022/11/02 03:59:08;;;;;;;0.70;0.70;;;7.10;99.90;;;;;;5087290;28;20270;-78
2022/11/02 04:01:43;;;;;;;1.20;1.00;;;7.00;99.90;;;;;;5068578;28;20564;-76
2022/11/02 04:04:09;;;;;;;1.02;0.82;;;7.10;99.90;;;;;;5104047;28;20411;-78
2022/11/02 04:06:36;;;;;;;6.53;0.80;;;7.10;99.90;;;;;;5107831;28;20376;-77
2022/11/02 04:09:03;;;;;;;3.13;0.90;;;7.00;99.90;;;;;;5089428;28;20035;-76
2022/11/02 04:19:43;;;;;;;1.08;0.98;;;7.10;99.90;;;;;;5108093;28;20039;-74
2022/11/02 04:27:37;;;;;;;0.80;0.60;;;7.00;99.90;;;;;;5107792;28;20300;-77
2022/11/02 04:30:03;;;;;;;0.80;0.80;;;7.00;99.90;;;;;;5088456;28;20294;-76
2022/11/02 04:35:28;;;;;;;1.60;0.98;;;7.00;99.90;;;;;;5061464;28;20047;-78
2022/11/02 04:40:37;;;;;;;0.70;0.70;;;7.10;99.90;;;;;;5107342;28;20482;-76
2022/11/02 04:43:03;;;;;;;5.82;1.10;;;7.00;99.90;;;;;;5107050;28;20024;-76
2022/11/02 04:45:29;;;;;;;4.75;0.57;;;7.00;99.90;;;;;;5107273;28;20027;-77
2022/11/02 04:48:06;;;;;;;0.90;0.80;;;6.90;99.90;;;;;;5068433;28;20024;-77
2022/11/02 04:50:32;;;;;;;2.63;1.45;;;6.90;99.90;;;;;;5087093;28;20028;-78
2022/11/02 04:53:00;;;;;;;2.42;1.00;;;6.90;99.90;;;;;;5087013;28;20063;-74
2022/11/02 04:55:27;;;;;;;3.83;1.00;;;6.90;99.90;;;;;;5086962;28;20118;-76
2022/11/02 04:57:52;;;;;;;0.73;0.73;;;6.90;99.90;;;;;;5086766;28;20028;-76
2022/11/02 05:00:19;;;;;;;0.75;0.75;;;6.70;99.90;;;;;;5087718;28;20529;-75
2022/11/02 05:02:46;;;;;;;0.98;0.68;;;6.60;99.90;;;;;;5087930;28;20055;-75
2022/11/02 05:05:13;;;;;;;0.80;0.80;;;6.50;99.90;;;;;;5070237;28;20213;-75
2022/11/02 05:07:38;;;;;;;3.70;0.70;;;6.40;99.90;;;;;;5088293;28;20016;-75
2022/11/02 05:10:04;;;;;;;1.13;0.60;;;6.90;99.90;;;;;;5069961;28;20076;-76
2022/11/02 05:12:30;;;;;;;3.90;0.90;;;6.40;99.90;;;;;;5088070;28;20026;-75
2022/11/02 05:14:56;;;;;;;3.38;0.82;;;6.40;99.90;;;;;;5088495;28;20020;-75
2022/11/02 05:17:22;;;;;;;1.60;1.50;;;6.40;99.90;;;;;;5089344;28;20044;-76
2022/11/02 05:19:48;;;;;;;0.70;0.70;;;6.40;99.90;;;;;;5089518;28;20024;-76
2022/11/02 05:22:13;;;;;;;1.38;0.90;;;6.40;99.90;;;;;;5089760;28;20453;-75
2022/11/02 05:24:39;;;;;;;0.95;0.95;;;6.40;99.90;;;;;;5071420;28;20120;-77
2022/11/02 05:27:05;;;;;;;3.90;2.30;;;6.30;99.90;;;;;;5089215;28;20016;-75
2022/11/02 05:29:31;;;;;;;2.75;1.42;;;6.30;99.90;;;;;;5089469;28;20396;-75
2022/11/02 05:31:57;;;;;;;1.13;0.98;;;6.20;99.90;;;;;;5072899;28;20053;-76
2022/11/02 05:34:22;;;;;;;3.55;1.20;;;6.20;99.90;;;;;;5093068;28;20477;-75
2022/11/02 05:36:48;;;;;;;1.25;1.15;;;6.30;99.90;;;;;;5093424;28;20032;-75
2022/11/02 05:39:14;;;;;;;1.08;0.98;;;6.30;99.90;;;;;;5074783;28;20024;-75
2022/11/02 05:41:40;;;;;;;1.30;0.70;;;6.30;99.90;;;;;;5093055;28;20075;-77
2022/11/02 05:44:06;;;;;;;1.35;0.90;;;6.50;99.90;;;;;;5092987;28;20034;-75
2022/11/02 05:46:32;;;;;;;4.80;1.60;;;6.20;99.90;;;;;;5092728;28;20024;-75
2022/11/02 05:48:58;;;;;;;1.75;0.60;;;6.40;99.90;;;;;;5093135;28;20542;-75
2022/11/02 05:51:23;;;;;;;2.17;0.73;;;6.20;99.90;;;;;;5093006;28;20024;-77
2022/11/02 05:53:49;;;;;;;0.70;0.70;;;6.10;99.90;;;;;;5091768;28;20040;-75
2022/11/02 05:56:15;;;;;;;6.90;0.95;;;6.60;99.90;;;;;;5113113;28;20055;-76
2022/11/02 05:58:41;;;;;;;1.20;0.80;;;6.00;99.90;;;;;;5111601;28;20031;-75
2022/11/02 06:01:07;;;;;;;1.63;0.75;;;6.10;99.90;;;;;;5092723;28;20330;-75
2022/11/02 06:03:34;;;;;;;3.22;0.73;;;6.70;99.90;;;;;;5092380;28;20035;-75
2022/11/02 06:06:09;;;;;;;1.05;0.98;;;5.90;99.90;;;;;;5092632;28;20054;-76
2022/11/02 06:08:37;;;;;;;4.75;0.88;;;6.00;99.90;;;;;;5092426;28;20476;-75
2022/11/02 06:11:12;;;;;;;4.60;0.73;;;6.10;99.90;;;;;;5092558;28;20286;-76
2022/11/02 06:13:39;;;;;;;2.15;1.42;;;6.30;99.90;;;;;;5092547;28;20117;-75
2022/11/02 06:16:10;;;;;;;2.75;1.15;;;6.30;99.90;;;;;;5092341;28;20541;-76
2022/11/02 06:18:37;;;;;;;0.45;0.45;;;6.30;99.90;;;;;;5092314;28;20051;-77
2022/11/02 06:21:03;;;;;;;1.95;0.60;;;6.30;99.90;;;;;;5092222;28;20016;-76
2022/11/02 06:23:29;;;;;;;0.82;0.70;;;6.20;99.90;;;;;;5092614;28;20028;-75
2022/11/02 06:25:57;;;;;;;1.88;1.35;;;6.50;99.90;;;;;;5092224;28;20472;-75
2022/11/02 06:28:23;;;;;;;0.50;0.50;;;6.10;99.90;;;;;;5092251;28;20030;-75
2022/11/02 06:30:49;;;;;;;0.75;0.60;;;6.10;99.90;;;;;;5091993;28;20024;-75
2022/11/02 06:33:16;;;;;;;3.83;1.13;;;6.10;99.90;;;;;;5073405;28;20097;-75
2022/11/02 06:35:46;;;;;;;1.65;0.80;;;6.10;99.90;;;;;;5092058;28;20031;-75
2022/11/02 06:38:13;;;;;;;2.95;1.80;;;6.50;99.90;;;;;;5092098;28;20055;-75
2022/11/02 06:40:39;;;;;;;7.65;0.85;;;6.20;99.90;;;;;;5091954;28;20023;-76
2022/11/02 06:43:05;;;;;;;1.35;0.95;;;6.40;99.90;;;;;;5091805;28;20028;-75
2022/11/02 06:45:31;;;;;;;1.25;1.10;;;6.50;99.90;;;;;;5091948;28;20507;-75
2022/11/02 06:47:56;;;;;;;0.70;0.70;;;6.50;99.90;;;;;;5073375;28;20063;-75
2022/11/02 06:50:23;;;;;;;2.53;0.98;;;6.90;99.90;;;;;;5091693;28;20077;-75
2022/11/02 06:52:50;;;;;;;2.90;1.20;;;6.50;99.90;;;;;;5091525;28;20024;-75
2022/11/02 06:55:16;;;;;;;4.18;1.17;;;6.50;99.90;;;;;;5073526;28;20032;-77
2022/11/02 06:57:43;;;;;;;2.45;0.63;;;6.50;99.90;;;;;;5091730;28;20099;-76
2022/11/02 07:00:12;;;;;;;1.38;1.08;;;6.50;99.90;;;;;;5091619;28;20069;-76
2022/11/02 07:02:39;;;;;;;4.18;1.20;;;6.60;99.90;;;;;;5091126;28;20048;-75
2022/11/02 07:05:05;;;;;;;2.65;1.58;;;6.70;99.90;;;;;;5091373;28;20085;-76
2022/11/02 07:07:30;;;;;;;2.65;1.50;;;6.90;99.90;;;;;;5091255;28;20051;-75
2022/11/02 07:09:56;;;;;;;3.00;0.98;;;7.00;99.90;;;;;;5091253;28;20051;-75
2022/11/02 07:12:22;;;;;;;2.58;0.98;;;;;;;;;;5091164;28;20039;-75
2022/11/02 07:14:48;;;;;;;3.95;0.95;;;7.10;99.90;;;;;;5091732;28;20395;-77
2022/11/02 07:17:13;;;;;;;2.10;1.52;;;7.20;99.90;;;;;;5090832;28;20024;-77
2022/11/02 07:19:39;;;;;;;7.13;0.80;;;7.20;99.90;;;;;;5091072;28;20028;-75
2022/11/02 07:22:05;;;;;;;0.88;0.75;;;7.30;99.90;;;;;;5091201;28;20024;-77
2022/11/02 07:24:30;;;;;;;0.60;0.50;;;7.30;99.90;;;;;;5072940;28;20027;-76
2022/11/02 07:26:56;;;;;;;0.95;0.90;;;7.40;99.90;;;;;;5090951;28;20423;-77
2022/11/02 07:29:22;;;;;;;2.53;1.00;;;7.50;99.90;;;;;;5090769;28;20056;-76
2022/11/02 07:31:47;;;;;;;1.33;0.90;;;7.50;99.90;;;;;;5090520;28;20058;-76
2022/11/02 07:34:13;;;;;;;2.00;1.88;;;7.60;99.90;;;;;;5090845;28;20063;-76
2022/11/02 07:36:39;;;;;;;5.47;3.20;;;7.80;99.90;;;;;;5090728;28;20461;-75
2022/11/02 07:39:08;;;;;;;9.27;2.00;;;7.90;99.90;;;;;;5090840;28;20038;-75
2022/11/02 07:41:34;;;;;;;5.72;2.83;;;8.20;99.90;;;;;;5090817;28;20020;-75
2022/11/02 07:44:00;;;;;;;7.40;4.30;;;8.20;99.90;;;;;;5090736;28;20024;-75
2022/11/02 07:46:26;;;;;;;7.85;3.95;;;8.30;99.90;;;;;;5090365;28;20031;-77
2022/11/02 07:48:55;;;;;;;9.70;3.13;;;11.00;99.90;;;;;;5090665;28;20024;-76
2022/11/02 07:51:20;;;;;;;3.53;2.80;;;8.40;99.90;;;;;;5090699;28;20016;-76
2022/11/02 07:53:46;;;;;;;5.85;3.60;;;8.40;99.90;;;;;;5089596;28;20036;-75
2022/11/02 07:56:12;;;;;;;3.90;1.75;;;8.60;99.90;;;;;;5072310;28;20146;-75
2022/11/02 07:58:38;;;;;;;2.17;1.48;;;8.60;99.90;;;;;;5090528;28;20055;-75
2022/11/02 08:01:03;;;;;;;2.95;2.00;;;8.80;99.90;;;;;;5090248;28;20056;-75
2022/11/02 08:03:32;;;;;;;3.92;2.42;;;8.90;99.90;;;;;;5072153;28;20032;-75
2022/11/02 08:06:01;;;;;;;2.63;2.00;;;9.20;99.90;;;;;;5089224;28;20109;-76
2022/11/02 08:08:27;;;;;;;5.50;1.58;;;9.10;99.90;;;;;;5085313;28;20168;-76
2022/11/02 08:11:03;;;;;;;2.45;1.75;;;9.30;99.90;;;;;;5110268;28;20214;-75
2022/11/02 08:13:29;;;;;;;2.92;1.83;;;9.50;99.90;;;;;;5110525;28;20057;-76
2022/11/02 08:15:55;;;;;;;4.22;1.52;;;9.60;99.90;;;;;;5091807;28;20383;-77
2022/11/02 08:18:23;;;;;;;6.20;2.25;;;9.80;99.90;;;;;;5109779;28;20081;-75
2022/11/02 08:20:49;;;;;;;6.93;2.10;;;10.00;99.90;;;;;;5108445;28;20073;-77
2022/11/02 08:23:17;;;;;;;2.97;1.05;;;10.20;99.90;;;;;;5109945;28;20031;-75
2022/11/02 08:25:45;;;;;;;4.85;2.08;;;10.40;99.90;;;;;;5110818;28;20023;-75
2022/11/02 08:28:14;;;;;;;8.32;1.90;;;10.50;99.90;;;;;;5092365;28;20035;-75
2022/11/02 08:30:40;;;;;;;3.97;3.00;;;10.90;99.90;;;;;;5087769;28;20023;-75
2022/11/02 08:33:10;;;;;;;13.52;4.90;;;11.30;99.90;;;;;;5087905;28;20066;-76
2022/11/02 08:35:36;;;;;;;8.25;5.30;;;11.60;99.90;;;;;;5088899;28;20027;-75
2022/11/02 08:38:02;;;;;;;14.02;6.15;;;12.00;99.90;;;;;;5070127;28;20032;-75
2022/11/02 08:40:28;;;;;;;10.85;4.78;;;12.30;99.90;;;;;;5089171;28;20051;-77
2022/11/02 08:42:58;;;;;;;7.32;3.33;;;12.60;99.90;;;;;;5090357;28;20052;-77
2022/11/02 08:45:24;;;;;;;7.28;3.92;;;12.80;99.90;;;;;;5092678;28;20457;-77
2022/11/02 08:47:49;;;;;;;8.75;3.83;;;13.10;99.90;;;;;;5091538;28;20025;-76
2022/11/02 08:50:15;;;;;;;5.78;3.42;;;13.40;99.90;;;;;;5089713;28;20031;-79
2022/11/02 08:52:41;;;;;;;6.30;1.70;;;13.70;99.90;;;;;;5071041;28;20032;-77
2022/11/02 08:55:07;;;;;;;1.23;0.93;;;13.80;99.90;;;;;;5070862;28;20118;-78
2022/11/02 08:57:32;;;;;;;1.88;0.90;;;14.00;99.90;;;;;;5089395;28;20543;-77
2022/11/02 08:59:58;;;;;;;1.08;0.57;;;13.80;99.90;;;;;;5089331;28;20046;-76
2022/11/02 09:02:24;;;;;;;3.10;1.30;;;13.70;99.90;;;;;;5089440;28;20020;-77
2022/11/02 09:04:49;;;;;;;4.20;0.65;;;13.70;99.90;;;;;;5072198;28;20341;-77
2022/11/02 09:07:15;;;;;;;1.65;0.73;;;13.70;99.90;;;;;;5091115;28;20024;-76
2022/11/02 09:09:41;;;;;;;4.18;0.93;;;13.60;99.90;;;;;;5113214;28;20112;-78
2022/11/02 09:12:09;;;;;;;3.10;0.40;;;13.60;99.90;;;;;;5114131;28;20022;-77
2022/11/02 09:14:35;;;;;;;2.97;0.60;;;13.60;99.90;;;;;;5113774;28;20126;-77
2022/11/02 09:17:01;;;;;;;2.15;1.05;;;13.60;99.90;;;;;;5114475;28;20122;-77
2022/11/02 09:19:26;;;;;;;0.57;0.47;;;13.60;99.90;;;;;;5107199;28;20068;-77
2022/11/02 09:21:52;;;;;;;1.33;0.63;;;13.80;99.90;;;;;;5113554;28;20020;-77
2022/11/02 09:24:18;;;;;;;1.27;0.70;;;13.80;99.90;;;;;;5115470;28;20027;-77
2022/11/02 09:26:44;;;;;;;5.70;1.02;;;13.70;99.90;;;;;;5123305;28;20035;-77
2022/11/02 09:29:10;;;;;;;3.72;1.17;;;13.70;99.90;;;;;;5115820;28;20055;-77
2022/11/02 09:31:35;;;;;;;1.85;0.82;;;13.70;99.90;;;;;;5110153;28;20032;-79
2022/11/02 09:34:01;;;;;;;4.18;0.70;;;13.70;99.90;;;;;;5076194;28;20047;-80
2022/11/02 09:36:27;;;;;;;2.35;0.50;;;13.90;99.90;;;;;;5091036;28;20077;-80
2022/11/02 09:38:52;;;;;;;0.60;0.60;;;14.00;99.90;;;;;;5095371;28;20565;-79
2022/11/02 09:41:44;;;;;;;2.58;0.40;;;14.00;99.90;;;;;;5093391;28;20372;-78
2022/11/02 09:44:35;;;;;;;2.25;0.55;;;14.10;99.90;;;;;;5090812;28;20024;-77
2022/11/02 09:47:02;;;;;;;5.78;1.20;;;14.30;99.90;;;;;;5073836;28;20024;-78
2022/11/02 09:49:28;;;;;;;0.82;0.40;;;14.30;99.90;;;;;;5094075;28;20111;-75
2022/11/02 09:51:57;;;;;;;4.22;0.73;;;14.20;99.90;;;;;;5100941;28;20024;-78
2022/11/02 09:54:26;;;;;;;1.38;0.93;;;14.20;99.90;;;;;;5109852;28;20039;-78
2022/11/02 09:56:55;;;;;;;;;;;14.20;99.90;;;;;;5092218;28;20410;-78
2022/11/02 09:59:25;;;;;;;1.80;0.70;;;14.30;99.90;;;;;;5110177;28;20014;-78
2022/11/02 10:01:54;;;;;;;10.90;1.02;;;14.40;99.90;;;;;;5109369;28;20051;-76
2022/11/02 10:04:42;;;;;;;1.02;0.50;;;14.40;99.90;;;;;;5092139;28;20123;-78
2022/11/02 10:07:12;;;;;;;0.30;0.30;;;14.80;99.90;;;;;;5091491;28;20097;-78
2022/11/02 10:09:56;;;;;;;2.58;0.93;;;14.80;99.90;;;;;;5109679;28;20547;-78
2022/11/02 10:12:42;;;;;;;0.47;0.47;;;14.80;99.90;;;;;;5109611;28;20400;-79
2022/11/02 10:15:17;;;;;;;1.02;0.35;;;14.80;99.90;;;;;;5093343;28;20032;-78
2022/11/02 10:17:45;;;;;;;2.65;1.02;;;14.70;99.90;;;;;;5086721;28;20054;-78
2022/11/02 10:20:34;;;;;;;2.30;1.13;;;14.80;99.90;;;;;;5106814;28;20537;-78
2022/11/02 10:23:05;;;;;;;2.20;0.73;;;14.90;99.90;;;;;;5107798;28;20027;-78
2022/11/02 10:25:33;;;;;;;1.35;0.50;;;15.00;99.90;;;;;;5107575;28;20028;-78
2022/11/02 10:28:08;;;;;;;7.57;1.17;;;15.10;99.90;;;;;;5096224;28;20028;-77
2022/11/02 10:30:35;;;;;;;1.65;0.60;;;15.20;99.90;;;;;;5090902;28;20103;-78
2022/11/02 10:33:09;;;;;;;2.95;0.63;;;15.10;99.90;;;;;;5098566;28;20066;-77
2022/11/02 10:36:00;;;;;;;3.42;1.13;;;15.30;99.90;;;;;;5078265;28;20035;-78
2022/11/02 10:39:02;;;;;;;1.60;0.82;;;15.40;99.90;;;;;;5078959;28;20099;-78
2022/11/02 10:41:57;;;;;;;3.63;1.23;;;15.40;99.90;;;;;;5090153;28;20024;-78
2022/11/02 10:44:31;;;;;;;2.63;0.80;;;15.30;99.90;;;;;;5071554;28;20023;-80
2022/11/02 10:47:20;;;;;;;2.70;1.10;;;15.10;99.90;;;;;;5095326;28;20194;-79
2022/11/02 10:49:58;;;;;;;4.32;1.15;;;15.00;99.90;;;;;;5094838;28;20020;-77
2022/11/02 10:52:35;;;;;;;4.10;0.50;;;15.10;99.90;;;;;;5078546;28;20545;-78
2022/11/02 10:55:08;;;;;;;1.05;0.60;;;15.00;99.90;;;;;;5099908;28;20198;-78
2022/11/02 10:57:38;;;;;;;0.32;0.25;;;14.90;99.90;;;;;;5089974;28;20289;-77
2022/11/02 11:00:21;;;;;;;1.08;0.60;;;14.90;99.90;;;;;;5088957;28;20396;-78
2022/11/02 11:03:08;;;;;;;1.17;0.68;;;14.80;99.90;;;;;;5099129;28;20105;-79
2022/11/02 11:05:56;;;;;;;13.35;1.02;;;14.90;99.90;;;;;;5102218;28;20032;-77
2022/11/02 11:08:30;;;;;;;3.15;1.38;;;14.90;99.90;;;;;;5081266;28;20078;-78
2022/11/02 11:11:30;;;;;;;4.13;0.63;;;14.70;99.90;;;;;;5073080;28;20027;-77
2022/11/02 11:14:01;;;;;;;;;;;14.60;99.90;;;;;;5068300;28;20058;-77
2022/11/02 11:16:42;;;;;;;1.05;0.73;;;14.60;99.90;;;;;;5068428;28;19912;-79
2022/11/02 11:19:37;;;;;;;1.55;0.77;;;14.60;99.90;;;;;;5086819;28;20035;-78
2022/11/02 11:22:21;;;;;;;5.47;0.88;;;14.70;99.90;;;;;;5068541;28;20024;-77
2022/11/02 11:24:47;;;;;;;3.22;0.90;;;14.70;99.90;;;;;;5086155;28;20024;-77
2022/11/02 11:27:12;;;;;;;4.63;1.65;;;14.70;99.90;;;;;;5093621;28;20080;-76
2022/11/02 11:29:44;;;;;;;3.45;0.60;;;14.80;99.90;;;;;;5090091;28;20023;-77
2022/11/02 11:32:26;;;;;;;0.82;0.70;;;14.70;99.90;;;;;;5107675;28;20082;-78
2022/11/02 11:35:01;;;;;;;3.05;0.77;;;14.70;99.90;;;;;;5089770;28;20512;-77
2022/11/02 11:37:27;;;;;;;6.20;1.88;;;14.70;99.90;;;;;;5108275;28;20023;-77
2022/11/02 11:40:05;;;;;;;3.88;1.23;;;14.80;99.90;;;;;;5107791;28;20027;-77
2022/11/02 11:42:35;;;;;;;4.05;1.20;;;14.90;99.90;;;;;;5107827;28;20088;-77
2022/11/02 11:45:07;;;;;;;1.02;0.68;;;14.80;99.90;;;;;;5107741;28;20024;-76
2022/11/02 11:47:39;;;;;;;5.18;0.63;;;15.00;99.90;;;;;;5107533;28;20027;-77
2022/11/02 11:50:13;;;;;;;2.30;0.73;;;15.10;99.90;;;;;;5107852;28;20042;-77
2022/11/02 11:52:38;;;;;;;6.05;1.23;;;15.20;99.90;;;;;;5107626;28;20019;-77
2022/11/02 11:55:26;;;;;;;2.60;0.77;;;15.40;99.90;;;;;;5108157;28;20024;-77
2022/11/02 11:58:05;;;;;;;4.05;0.70;;;15.40;99.90;;;;;;5107262;28;20031;-77
2022/11/02 12:00:30;;;;;;;1.20;1.03;;;15.60;99.90;;;;;;5107736;28;20084;-77
2022/11/02 12:03:09;;;;;;;2.17;0.95;;;15.60;99.90;;;;;;5107281;28;20024;-77
2022/11/02 12:06:02;;;;;;;6.25;0.43;;;15.50;99.90;;;;;;5108033;28;20020;-76
2022/11/02 12:08:49;;;;;;;0.98;0.98;;;15.40;99.90;;;;;;5088448;28;20035;-78
2022/11/02 12:11:32;;;;;;;4.68;0.50;;;15.50;99.90;;;;;;5086875;28;20031;-78
2022/11/02 12:14:17;;;;;;;3.85;0.80;;;15.70;99.90;;;;;;5085389;28;20343;-78
2022/11/02 12:17:01;;;;;;;1.55;0.60;;;15.90;99.90;;;;;;5084794;28;20012;-78
2022/11/02 12:19:51;;;;;;;5.68;0.57;;;16.10;99.90;;;;;;5085268;28;20012;-79
2022/11/02 12:22:31;;;;;;;8.93;0.82;;;16.20;99.90;;;;;;5084946;28;20047;-78
2022/11/02 12:24:57;;;;;;;1.40;0.50;;;16.40;99.90;;;;;;5084639;28;20024;-78
2022/11/02 12:27:29;;;;;;;0.85;0.85;;;16.60;99.90;;;;;;5092339;28;20034;-77
2022/11/02 12:30:30;;;;;;;1.92;0.45;;;16.50;99.90;;;;;;5086478;28;20297;-78
2022/11/02 12:33:31;;;;;;;0.75;0.60;;;16.50;99.90;;;;;;5104361;28;20370;-79
2022/11/02 12:36:11;;;;;;;4.38;0.55;;;16.30;99.90;;;;;;5074759;28;20421;-79
2022/11/02 12:38:51;;;;;;;3.30;0.68;;;16.20;99.90;;;;;;5087783;28;20047;-79
2022/11/02 12:41:23;;;;;;;2.22;0.70;;;16.20;99.90;;;;;;5103699;28;20032;-80
2022/11/02 12:44:08;;;;;;;2.20;0.50;;;16.30;99.90;;;;;;5088348;28;20027;-77
2022/11/02 12:46:56;;;;;;;1.15;0.63;;;16.40;99.90;;;;;;5103345;28;20027;-79
2022/11/02 12:49:59;;;;;;;1.17;0.93;;;16.30;99.90;;;;;;5110018;28;20019;-79
2022/11/02 12:52:53;;;;;;;2.53;0.75;;;16.30;99.90;;;;;;5106639;28;20196;-79
2022/11/02 12:55:23;;;;;;;2.85;1.05;;;16.30;99.90;;;;;;5106961;28;20104;-78
2022/11/02 12:57:51;;;;;;;3.95;0.75;;;16.10;99.90;;;;;;5106975;28;20223;-79
2022/11/02 13:00:18;;;;;;;0.82;0.52;;;16.10;99.90;;;;;;5106464;28;20092;-77
2022/11/02 13:02:58;;;;;;;0.55;0.55;;;16.00;99.90;;;;;;5088716;28;20572;-79
2022/11/02 13:05:36;;;;;;;2.20;0.50;;;15.90;99.90;;;;;;5106446;28;20016;-78
2022/11/02 13:08:02;;;;;;;2.22;1.10;;;16.10;99.90;;;;;;5113826;28;20106;-78
2022/11/02 13:10:33;;;;;;;4.28;0.80;;;16.20;99.90;;;;;;5096320;28;20023;-80
2022/11/02 13:13:02;;;;;;;2.92;0.80;;;16.20;99.90;;;;;;5087746;28;20036;-77
2022/11/02 13:15:30;;;;;;;;;;;16.60;99.90;;;;;;5107127;28;20038;-79
2022/11/02 13:18:04;;;;;;;4.40;0.85;;;18.90;99.90;;;;;;5088274;28;20846;-79
2022/11/02 13:20:43;;;;;;;2.15;0.55;;;18.90;99.90;;;;;;5088304;28;20637;-78
2022/11/02 13:23:25;;;;;;;1.55;0.68;;;20.00;99.00;;;;;;5106956;28;20024;-79
2022/11/02 13:25:56;;;;;;;1.75;0.93;;;20.60;90.40;;;;;;5107572;28;20032;-78
2022/11/02 13:28:33;;;;;;;2.08;1.20;;;20.40;83.30;;;;;;5078773;28;20088;-79
2022/11/02 13:31:04;;;;;;;2.35;0.90;;;20.70;81.60;;;;;;5092687;28;20210;-79
2022/11/02 13:33:41;;;;;;;4.45;0.98;;;21.70;77.10;;;;;;5101124;28;20295;-77
2022/11/02 13:36:11;;;;;;;1.58;0.98;;;22.50;71.10;;;;;;5109318;28;20077;-79